createdAt,value
2019-05-11T00:00:39.131Z,0.00
2019-05-11T00:01:39.115Z,0.00
2019-05-11T00:02:39.106Z,0.00
2019-05-11T00:03:39.101Z,0.00
2019-05-11T00:04:39.081Z,0.00
2019-05-11T00:05:39.069Z,0.00
2019-05-11T00:06:39.057Z,0.00
2019-05-11T00:07:39.047Z,0.00
2019-05-11T00:08:39.040Z,0.00
2019-05-11T00:09:39.032Z,0.00
2019-05-11T00:10:39.015Z,0.00
2019-05-11T00:11:39.002Z,0.00
2019-05-11T00:12:38.995Z,0.00
2019-05-11T00:13:38.980Z,0.00
2019-05-11T00:14:38.968Z,0.00
2019-05-11T00:15:38.963Z,0.00
2019-05-11T00:16:38.946Z,0.00
2019-05-11T00:17:38.936Z,0.00
2019-05-11T00:18:38.925Z,0.00
2019-05-11T00:19:38.921Z,0.00
2019-05-11T00:20:38.899Z,0.00
2019-05-11T00:21:38.917Z,0.00
2019-05-11T00:22:38.880Z,0.00
2019-05-11T00:23:38.867Z,0.00
2019-05-11T00:24:38.856Z,0.00
2019-05-11T00:25:38.845Z,0.00
2019-05-11T00:26:38.836Z,0.00
2019-05-11T00:27:38.852Z,0.00
2019-05-11T00:28:38.811Z,0.00
2019-05-11T00:29:38.801Z,0.00
2019-05-11T00:30:38.788Z,0.00
2019-05-11T00:31:38.776Z,0.00
2019-05-11T00:32:38.766Z,0.00
2019-05-11T00:33:38.760Z,0.00
2019-05-11T00:34:38.742Z,0.00
2019-05-11T00:35:38.733Z,0.00
2019-05-11T00:36:38.720Z,0.00
2019-05-11T00:37:38.722Z,0.00
2019-05-11T00:38:38.701Z,0.00
2019-05-11T00:39:38.731Z,0.00
2019-05-11T00:40:38.710Z,0.00
2019-05-11T00:41:38.662Z,0.00
2019-05-11T00:42:38.653Z,0.00
2019-05-11T00:43:38.657Z,0.00
2019-05-11T00:44:38.634Z,0.00
2019-05-11T00:45:38.631Z,0.00
2019-05-11T00:46:38.607Z,0.00
2019-05-11T00:47:38.596Z,0.00
2019-05-11T00:48:38.587Z,0.00
2019-05-11T00:49:38.576Z,0.00
2019-05-11T00:50:40.019Z,0.00
2019-05-11T00:51:38.558Z,0.00
2019-05-11T00:52:38.540Z,0.00
2019-05-11T00:53:38.528Z,0.00
2019-05-11T00:54:38.517Z,0.00
2019-05-11T00:55:38.508Z,0.00
2019-05-11T00:56:38.494Z,0.00
2019-05-11T00:57:38.515Z,0.00
2019-05-11T00:58:38.477Z,0.00
2019-05-11T00:59:38.460Z,0.00
2019-05-11T01:00:38.449Z,0.00
2019-05-11T01:01:38.443Z,0.00
2019-05-11T01:02:38.427Z,0.00
2019-05-11T01:03:38.443Z,0.00
2019-05-11T01:04:38.417Z,0.00
2019-05-11T01:05:38.394Z,0.00
2019-05-11T01:06:38.394Z,0.00
2019-05-11T01:07:38.371Z,0.00
2019-05-11T01:08:38.360Z,0.00
2019-05-11T01:09:38.356Z,0.00
2019-05-11T01:10:42.708Z,0.00
2019-05-11T01:11:38.326Z,0.00
2019-05-11T01:12:38.317Z,0.00
2019-05-11T01:13:38.302Z,0.00
2019-05-11T01:14:38.299Z,0.00
2019-05-11T01:15:38.304Z,0.00
2019-05-11T01:16:38.268Z,0.00
2019-05-11T01:17:38.257Z,0.00
2019-05-11T01:18:38.247Z,0.00
2019-05-11T01:19:38.236Z,0.00
2019-05-11T01:20:38.226Z,0.00
2019-05-11T01:21:38.222Z,0.00
2019-05-11T01:22:38.201Z,0.00
2019-05-11T01:23:38.190Z,0.00
2019-05-11T01:24:38.180Z,0.00
2019-05-11T01:25:38.169Z,0.00
2019-05-11T01:26:38.157Z,0.00
2019-05-11T01:27:38.152Z,0.00
2019-05-11T01:28:38.134Z,0.00
2019-05-11T01:29:38.129Z,0.00
2019-05-11T01:30:38.874Z,0.00
2019-05-11T01:31:38.100Z,0.00
2019-05-11T01:32:38.091Z,0.00
2019-05-11T01:33:38.083Z,0.00
2019-05-11T01:34:38.066Z,0.00
2019-05-11T01:35:38.054Z,0.00
2019-05-11T01:36:38.042Z,0.00
2019-05-11T01:37:38.033Z,0.00
2019-05-11T01:38:38.019Z,0.00
2019-05-11T01:39:38.039Z,0.00
2019-05-11T01:40:38.001Z,0.00
2019-05-11T01:41:37.988Z,0.00
2019-05-11T01:42:37.996Z,0.00
2019-05-11T01:43:37.965Z,0.00
2019-05-11T01:44:37.956Z,0.00
2019-05-11T01:45:37.952Z,0.00
2019-05-11T01:46:37.930Z,0.00
2019-05-11T01:47:37.921Z,0.00
2019-05-11T01:48:37.919Z,0.00
2019-05-11T01:49:37.899Z,0.00
2019-05-11T01:50:37.885Z,0.00
2019-05-11T01:51:37.880Z,0.00
2019-05-11T01:52:37.866Z,0.00
2019-05-11T01:53:37.853Z,0.00
2019-05-11T01:54:37.839Z,0.00
2019-05-11T01:55:37.834Z,0.00
2019-05-11T01:56:37.818Z,0.00
2019-05-11T01:57:37.817Z,0.00
2019-05-11T01:58:37.796Z,0.00
2019-05-11T01:59:37.783Z,0.00
2019-05-11T02:00:37.772Z,0.00
2019-05-11T02:01:37.762Z,0.00
2019-05-11T02:02:37.749Z,0.00
2019-05-11T02:03:37.772Z,0.00
2019-05-11T02:04:37.727Z,0.00
2019-05-11T02:05:37.717Z,0.00
2019-05-11T02:06:37.705Z,0.00
2019-05-11T02:07:37.700Z,0.00
2019-05-11T02:08:37.689Z,0.00
2019-05-11T02:09:37.676Z,0.00
2019-05-11T02:10:37.660Z,0.00
2019-05-11T02:11:37.648Z,0.00
2019-05-11T02:12:37.638Z,0.00
2019-05-11T02:13:37.626Z,0.00
2019-05-11T02:14:37.691Z,0.00
2019-05-11T02:15:37.612Z,0.00
2019-05-11T02:16:37.591Z,0.00
2019-05-11T02:17:37.584Z,0.00
2019-05-11T02:18:37.571Z,0.00
2019-05-11T02:19:37.558Z,0.00
2019-05-11T02:20:37.548Z,0.00
2019-05-11T02:21:37.555Z,0.00
2019-05-11T02:22:37.526Z,0.00
2019-05-11T02:23:37.512Z,0.00
2019-05-11T02:24:37.503Z,0.00
2019-05-11T02:25:37.490Z,0.00
2019-05-11T02:26:37.520Z,0.00
2019-05-11T02:27:37.499Z,0.00
2019-05-11T02:28:37.457Z,0.00
2019-05-11T02:29:37.448Z,0.00
2019-05-11T02:30:37.438Z,0.00
2019-05-11T02:31:37.435Z,0.00
2019-05-11T02:32:37.413Z,0.00
2019-05-11T02:33:37.413Z,0.00
2019-05-11T02:34:37.454Z,0.00
2019-05-11T02:35:37.376Z,0.00
2019-05-11T02:36:37.410Z,0.00
2019-05-11T02:37:37.355Z,0.00
2019-05-11T02:38:37.344Z,0.00
2019-05-11T02:39:37.343Z,0.00
2019-05-11T02:40:37.321Z,0.00
2019-05-11T02:41:37.779Z,0.00
2019-05-11T02:42:37.301Z,0.00
2019-05-11T02:43:37.288Z,0.00
2019-05-11T02:44:37.283Z,0.00
2019-05-11T02:45:37.345Z,0.00
2019-05-11T02:46:37.269Z,0.00
2019-05-11T02:47:37.244Z,0.00
2019-05-11T02:48:37.242Z,0.00
2019-05-11T02:49:37.220Z,0.00
2019-05-11T02:50:37.222Z,0.00
2019-05-11T02:51:37.232Z,0.00
2019-05-11T02:52:37.189Z,0.00
2019-05-11T02:53:37.177Z,0.00
2019-05-11T02:54:37.165Z,0.00
2019-05-11T02:55:37.155Z,0.00
2019-05-11T02:56:37.140Z,0.00
2019-05-11T02:57:37.141Z,0.00
2019-05-11T02:58:37.122Z,0.00
2019-05-11T02:59:37.108Z,0.00
2019-05-11T03:00:37.104Z,0.00
2019-05-11T03:01:37.083Z,0.00
2019-05-11T03:02:37.082Z,0.00
2019-05-11T03:03:37.071Z,0.00
2019-05-11T03:04:37.056Z,0.00
2019-05-11T03:05:37.052Z,0.00
2019-05-11T03:06:37.029Z,0.00
2019-05-11T03:07:37.032Z,0.00
2019-05-11T03:08:37.015Z,0.00
2019-05-11T03:09:37.026Z,0.00
2019-05-11T03:10:36.983Z,0.00
2019-05-11T03:11:54.015Z,0.00
2019-05-11T03:12:37.962Z,0.00
2019-05-11T03:13:36.952Z,0.00
2019-05-11T03:14:36.941Z,0.00
2019-05-11T03:15:36.938Z,0.00
2019-05-11T03:16:36.917Z,0.00
2019-05-11T03:17:36.905Z,0.00
2019-05-11T03:18:36.892Z,0.00
2019-05-11T03:19:36.890Z,0.00
2019-05-11T03:20:36.875Z,0.00
2019-05-11T03:21:36.891Z,4.00
2019-05-11T03:22:36.847Z,4.00
2019-05-11T03:23:36.838Z,4.00
2019-05-11T03:24:36.829Z,4.00
2019-05-11T03:25:36.823Z,4.00
2019-05-11T03:26:36.802Z,4.00
2019-05-11T03:27:36.798Z,0.00
2019-05-11T03:28:36.781Z,0.00
2019-05-11T03:29:36.773Z,0.00
2019-05-11T03:30:36.761Z,0.00
2019-05-11T03:31:36.747Z,4.00
2019-05-11T03:32:36.749Z,4.00
2019-05-11T03:33:36.745Z,4.00
2019-05-11T03:34:36.824Z,4.00
2019-05-11T03:35:36.706Z,4.00
2019-05-11T03:36:36.692Z,4.00
2019-05-11T03:37:36.680Z,4.00
2019-05-11T03:38:36.669Z,4.00
2019-05-11T03:39:36.691Z,4.00
2019-05-11T03:40:36.644Z,4.00
2019-05-11T03:41:36.640Z,4.00
2019-05-11T03:42:36.625Z,4.00
2019-05-11T03:43:36.613Z,4.00
2019-05-11T03:44:36.606Z,4.00
2019-05-11T03:45:36.601Z,8.00
2019-05-11T03:46:36.577Z,4.00
2019-05-11T03:47:36.577Z,8.00
2019-05-11T03:48:36.556Z,4.00
2019-05-11T03:49:36.545Z,4.00
2019-05-11T03:50:36.533Z,4.00
2019-05-11T03:51:36.530Z,4.00
2019-05-11T03:52:36.520Z,4.00
2019-05-11T03:53:36.501Z,4.00
2019-05-11T03:54:36.494Z,4.00
2019-05-11T03:55:36.485Z,4.00
2019-05-11T03:56:36.472Z,4.00
2019-05-11T03:57:36.485Z,4.00
2019-05-11T03:58:36.449Z,4.00
2019-05-11T03:59:36.438Z,4.00
2019-05-11T04:00:36.419Z,4.00
2019-05-11T04:01:36.409Z,4.00
2019-05-11T04:02:36.419Z,4.00
2019-05-11T04:03:36.393Z,4.00
2019-05-11T04:04:36.455Z,4.00
2019-05-11T04:05:36.375Z,4.00
2019-05-11T04:06:36.352Z,4.00
2019-05-11T04:07:36.404Z,4.00
2019-05-11T04:08:36.351Z,4.00
2019-05-11T04:09:36.327Z,4.00
2019-05-11T04:10:36.308Z,4.00
2019-05-11T04:11:36.296Z,4.00
2019-05-11T04:12:36.287Z,4.00
2019-05-11T04:13:36.274Z,4.00
2019-05-11T04:14:36.263Z,4.00
2019-05-11T04:15:36.278Z,4.00
2019-05-11T04:16:36.246Z,4.00
2019-05-11T04:17:36.242Z,8.00
2019-05-11T04:18:36.221Z,8.00
2019-05-11T04:19:36.206Z,8.00
2019-05-11T04:20:36.195Z,8.00
2019-05-11T04:21:36.219Z,8.00
2019-05-11T04:22:36.177Z,8.00
2019-05-11T04:23:36.162Z,8.00
2019-05-11T04:24:36.200Z,12.00
2019-05-11T04:25:36.151Z,8.00
2019-05-11T04:26:36.133Z,12.00
2019-05-11T04:27:36.142Z,12.00
2019-05-11T04:28:36.104Z,12.00
2019-05-11T04:29:36.093Z,16.00
2019-05-11T04:30:36.084Z,20.00
2019-05-11T04:31:36.089Z,20.00
2019-05-11T04:32:36.062Z,20.00
2019-05-11T04:33:36.083Z,24.00
2019-05-11T04:34:36.041Z,20.00
2019-05-11T04:35:36.031Z,20.00
2019-05-11T04:36:36.015Z,20.00
2019-05-11T04:37:36.006Z,20.00
2019-05-11T04:38:35.998Z,20.00
2019-05-11T04:39:35.989Z,20.00
2019-05-11T04:40:35.971Z,20.00
2019-05-11T04:41:35.960Z,16.00
2019-05-11T04:42:53.313Z,20.00
2019-05-11T04:43:36.938Z,16.00
2019-05-11T04:44:35.927Z,20.00
2019-05-11T04:45:35.925Z,16.00
2019-05-11T04:46:35.902Z,16.00
2019-05-11T04:47:35.897Z,16.00
2019-05-11T04:48:35.890Z,20.00
2019-05-11T04:49:35.869Z,16.00
2019-05-11T04:50:35.861Z,16.00
2019-05-11T04:51:35.885Z,16.00
2019-05-11T04:52:35.837Z,16.00
2019-05-11T04:53:35.831Z,16.00
2019-05-11T04:54:35.811Z,16.00
2019-05-11T04:55:35.800Z,16.00
2019-05-11T04:56:35.790Z,20.00
2019-05-11T04:57:35.797Z,16.00
2019-05-11T04:58:35.769Z,20.00
2019-05-11T04:59:35.757Z,20.00
2019-05-11T05:00:35.746Z,20.00
2019-05-11T05:01:35.732Z,24.00
2019-05-11T05:02:35.724Z,24.00
2019-05-11T05:03:40.671Z,20.00
2019-05-11T05:04:36.697Z,20.00
2019-05-11T05:05:35.690Z,20.00
2019-05-11T05:06:38.818Z,24.00
2019-05-11T05:07:35.664Z,24.00
2019-05-11T05:08:35.655Z,24.00
2019-05-11T05:09:42.005Z,24.00
2019-05-11T05:10:36.631Z,28.00
2019-05-11T05:11:36.524Z,28.00
2019-05-11T05:12:35.609Z,24.00
2019-05-11T05:13:35.598Z,24.00
2019-05-11T05:14:35.588Z,28.00
2019-05-11T05:15:35.604Z,28.00
2019-05-11T05:16:35.563Z,28.00
2019-05-11T05:17:35.551Z,28.00
2019-05-11T05:18:35.540Z,28.00
2019-05-11T05:19:35.529Z,32.00
2019-05-11T05:20:35.521Z,36.00
2019-05-11T05:21:35.538Z,36.00
2019-05-11T05:22:35.498Z,36.00
2019-05-11T05:23:35.485Z,36.00
2019-05-11T05:24:35.481Z,36.00
2019-05-11T05:25:35.465Z,40.00
2019-05-11T05:26:35.453Z,40.00
2019-05-11T05:27:35.471Z,40.00
2019-05-11T05:28:35.427Z,40.00
2019-05-11T05:29:35.416Z,36.00
2019-05-11T05:30:35.405Z,36.00
2019-05-11T05:31:35.395Z,36.00
2019-05-11T05:32:35.385Z,40.00
2019-05-11T05:33:35.401Z,44.00
2019-05-11T05:34:35.361Z,40.00
2019-05-11T05:35:35.349Z,40.00
2019-05-11T05:36:35.337Z,40.00
2019-05-11T05:37:35.327Z,40.00
2019-05-11T05:38:35.319Z,44.00
2019-05-11T05:39:35.313Z,44.00
2019-05-11T05:40:35.293Z,44.00
2019-05-11T05:41:35.366Z,44.00
2019-05-11T05:42:35.273Z,44.00
2019-05-11T05:43:35.263Z,44.00
2019-05-11T05:44:35.258Z,44.00
2019-05-11T05:45:35.243Z,44.00
2019-05-11T05:46:35.227Z,44.00
2019-05-11T05:47:35.213Z,48.00
2019-05-11T05:48:35.210Z,48.00
2019-05-11T05:49:35.195Z,48.00
2019-05-11T05:50:35.181Z,52.00
2019-05-11T05:51:35.176Z,52.00
2019-05-11T05:52:35.157Z,52.00
2019-05-11T05:53:35.145Z,56.00
2019-05-11T05:54:35.143Z,52.00
2019-05-11T05:55:35.123Z,56.00
2019-05-11T05:56:35.113Z,52.00
2019-05-11T05:57:35.131Z,56.00
2019-05-11T05:58:35.117Z,52.00
2019-05-11T05:59:35.079Z,52.00
2019-05-11T06:00:35.098Z,52.00
2019-05-11T06:01:35.060Z,52.00
2019-05-11T06:02:35.046Z,56.00
2019-05-11T06:03:35.062Z,52.00
2019-05-11T06:04:35.022Z,48.00
2019-05-11T06:05:35.012Z,52.00
2019-05-11T06:06:35.001Z,48.00
2019-05-11T06:07:34.993Z,52.00
2019-05-11T06:08:34.976Z,56.00
2019-05-11T06:09:35.001Z,56.00
2019-05-11T06:10:34.964Z,56.00
2019-05-11T06:11:34.942Z,60.00
2019-05-11T06:12:34.931Z,60.00
2019-05-11T06:13:44.999Z,56.00
2019-05-11T06:14:35.914Z,64.00
2019-05-11T06:15:34.897Z,64.00
2019-05-11T06:16:34.886Z,56.00
2019-05-11T06:17:34.875Z,56.00
2019-05-11T06:18:34.869Z,52.00
2019-05-11T06:19:34.859Z,56.00
2019-05-11T06:20:34.875Z,60.00
2019-05-11T06:21:34.829Z,56.00
2019-05-11T06:22:34.825Z,52.00
2019-05-11T06:23:34.810Z,64.00
2019-05-11T06:24:34.796Z,68.00
2019-05-11T06:25:34.785Z,72.00
2019-05-11T06:26:34.779Z,68.00
2019-05-11T06:27:34.763Z,64.00
2019-05-11T06:28:34.750Z,68.00
2019-05-11T06:29:34.739Z,68.00
2019-05-11T06:30:34.730Z,68.00
2019-05-11T06:31:34.721Z,72.00
2019-05-11T06:32:34.737Z,68.00
2019-05-11T06:33:34.693Z,68.00
2019-05-11T06:34:34.692Z,68.00
2019-05-11T06:35:34.673Z,68.00
2019-05-11T06:36:34.661Z,68.00
2019-05-11T06:37:34.651Z,68.00
2019-05-11T06:38:34.669Z,68.00
2019-05-11T06:39:34.626Z,68.00
2019-05-11T06:40:34.614Z,64.00
2019-05-11T06:41:34.605Z,68.00
2019-05-11T06:42:34.596Z,68.00
2019-05-11T06:43:34.583Z,68.00
2019-05-11T06:44:34.601Z,68.00
2019-05-11T06:45:34.558Z,68.00
2019-05-11T06:46:35.266Z,72.00
2019-05-11T06:47:34.535Z,68.00
2019-05-11T06:48:34.526Z,72.00
2019-05-11T06:49:34.519Z,68.00
2019-05-11T06:50:34.531Z,72.00
2019-05-11T06:51:34.491Z,72.00
2019-05-11T06:52:34.480Z,76.00
2019-05-11T06:53:34.474Z,76.00
2019-05-11T06:54:34.457Z,76.00
2019-05-11T06:55:34.445Z,76.00
2019-05-11T06:56:34.458Z,80.00
2019-05-11T06:57:34.423Z,76.00
2019-05-11T06:58:34.411Z,76.00
2019-05-11T06:59:34.400Z,76.00
2019-05-11T07:00:34.389Z,76.00
2019-05-11T07:01:34.377Z,76.00
2019-05-11T07:02:34.394Z,80.00
2019-05-11T07:03:34.356Z,80.00
2019-05-11T07:04:34.344Z,80.00
2019-05-11T07:05:34.334Z,80.00
2019-05-11T07:06:34.322Z,80.00
2019-05-11T07:07:46.534Z,80.00
2019-05-11T07:08:35.330Z,80.00
2019-05-11T07:09:34.290Z,76.00
2019-05-11T07:10:34.283Z,80.00
2019-05-11T07:11:34.268Z,80.00
2019-05-11T07:12:34.254Z,80.00
2019-05-11T07:13:34.247Z,76.00
2019-05-11T07:14:34.239Z,76.00
2019-05-11T07:15:34.222Z,76.00
2019-05-11T07:16:34.209Z,76.00
2019-05-11T07:17:34.199Z,80.00
2019-05-11T07:18:34.210Z,80.00
2019-05-11T07:19:34.176Z,84.00
2019-05-11T07:20:49.136Z,84.00
2019-05-11T07:21:35.154Z,84.00
2019-05-11T07:22:34.152Z,84.00
2019-05-11T07:23:34.131Z,84.00
2019-05-11T07:24:34.122Z,88.00
2019-05-11T07:25:34.168Z,88.00
2019-05-11T07:26:34.128Z,88.00
2019-05-11T07:27:34.084Z,88.00
2019-05-11T07:28:34.074Z,88.00
2019-05-11T07:29:34.065Z,88.00
2019-05-11T07:30:34.053Z,92.00
2019-05-11T07:31:34.040Z,92.00
2019-05-11T07:32:34.059Z,88.00
2019-05-11T07:33:34.017Z,88.00
2019-05-11T07:34:34.007Z,88.00
2019-05-11T07:35:33.993Z,88.00
2019-05-11T07:36:33.986Z,84.00
2019-05-11T07:37:33.971Z,92.00
2019-05-11T07:38:33.967Z,92.00
2019-05-11T07:39:33.950Z,92.00
2019-05-11T07:40:33.939Z,92.00
2019-05-11T07:41:33.932Z,92.00
2019-05-11T07:42:33.915Z,88.00
2019-05-11T07:43:33.904Z,88.00
2019-05-11T07:44:38.492Z,84.00
2019-05-11T07:45:34.884Z,84.00
2019-05-11T07:46:33.870Z,92.00
2019-05-11T07:47:33.858Z,96.00
2019-05-11T07:48:33.853Z,96.00
2019-05-11T07:49:33.835Z,100.00
2019-05-11T07:50:33.844Z,100.00
2019-05-11T07:51:33.814Z,100.00
2019-05-11T07:52:33.805Z,104.00
2019-05-11T07:53:33.794Z,104.00
2019-05-11T07:54:33.780Z,104.00
2019-05-11T07:55:33.768Z,104.00
2019-05-11T07:56:33.763Z,104.00
2019-05-11T07:57:33.746Z,108.00
2019-05-11T07:58:33.735Z,108.00
2019-05-11T07:59:33.724Z,112.00
2019-05-11T08:00:36.583Z,108.00
2019-05-11T08:01:34.726Z,112.00
2019-05-11T08:02:33.690Z,112.00
2019-05-11T08:03:33.680Z,116.00
2019-05-11T08:04:33.676Z,116.00
2019-05-11T08:05:33.655Z,116.00
2019-05-11T08:06:33.645Z,116.00
2019-05-11T08:07:33.641Z,112.00
2019-05-11T08:08:33.620Z,104.00
2019-05-11T08:09:33.609Z,108.00
2019-05-11T08:10:33.605Z,116.00
2019-05-11T08:11:33.588Z,124.00
2019-05-11T08:12:33.575Z,124.00
2019-05-11T08:13:33.599Z,128.00
2019-05-11T08:14:33.553Z,128.00
2019-05-11T08:15:33.542Z,132.00
2019-05-11T08:16:33.532Z,132.00
2019-05-11T08:17:33.523Z,132.00
2019-05-11T08:18:33.508Z,132.00
2019-05-11T08:19:33.504Z,140.00
2019-05-11T08:20:33.487Z,132.00
2019-05-11T08:21:33.475Z,136.00
2019-05-11T08:22:33.467Z,140.00
2019-05-11T08:23:33.452Z,140.00
2019-05-11T08:24:33.444Z,140.00
2019-05-11T08:25:33.459Z,144.00
2019-05-11T08:26:33.419Z,136.00
2019-05-11T08:27:33.407Z,144.00
2019-05-11T08:28:33.398Z,148.00
2019-05-11T08:29:33.385Z,136.00
2019-05-11T08:30:33.374Z,152.00
2019-05-11T08:31:33.400Z,144.00
2019-05-11T08:32:33.352Z,116.00
2019-05-11T08:33:33.342Z,108.00
2019-05-11T08:34:33.328Z,124.00
2019-05-11T08:35:33.318Z,152.00
2019-05-11T08:36:33.310Z,128.00
2019-05-11T08:37:33.302Z,124.00
2019-05-11T08:38:33.283Z,104.00
2019-05-11T08:39:33.272Z,100.00
2019-05-11T08:40:33.260Z,100.00
2019-05-11T08:41:33.250Z,124.00
2019-05-11T08:42:33.242Z,108.00
2019-05-11T08:43:33.259Z,100.00
2019-05-11T08:44:33.216Z,100.00
2019-05-11T08:45:33.204Z,96.00
2019-05-11T08:46:33.195Z,96.00
2019-05-11T08:47:33.185Z,96.00
2019-05-11T08:48:33.171Z,96.00
2019-05-11T08:49:33.189Z,100.00
2019-05-11T08:50:33.148Z,100.00
2019-05-11T08:51:33.139Z,104.00
2019-05-11T08:52:33.126Z,108.00
2019-05-11T08:53:33.117Z,108.00
2019-05-11T08:54:33.104Z,112.00
2019-05-11T08:55:33.119Z,116.00
2019-05-11T08:56:33.081Z,128.00
2019-05-11T08:57:33.070Z,156.00
2019-05-11T08:58:33.057Z,188.00
2019-05-11T08:59:33.049Z,168.00
2019-05-11T09:00:33.035Z,152.00
2019-05-11T09:01:33.030Z,152.00
2019-05-11T09:02:33.014Z,180.00
2019-05-11T09:03:33.002Z,176.00
2019-05-11T09:04:32.993Z,176.00
2019-05-11T09:05:32.980Z,172.00
2019-05-11T09:06:32.971Z,168.00
2019-05-11T09:07:32.964Z,140.00
2019-05-11T09:08:32.948Z,144.00
2019-05-11T09:09:32.939Z,164.00
2019-05-11T09:10:32.924Z,184.00
2019-05-11T09:11:32.913Z,968.00
2019-05-11T09:12:32.902Z,1092.00
2019-05-11T09:13:32.917Z,152.00
2019-05-11T09:14:32.878Z,168.00
2019-05-11T09:15:37.268Z,164.00
2019-05-11T09:16:33.855Z,168.00
2019-05-11T09:17:32.844Z,164.00
2019-05-11T09:18:32.835Z,156.00
2019-05-11T09:19:32.841Z,140.00
2019-05-11T09:20:32.812Z,132.00
2019-05-11T09:21:32.799Z,132.00
2019-05-11T09:22:32.788Z,132.00
2019-05-11T09:23:37.336Z,128.00
2019-05-11T09:24:33.788Z,128.00
2019-05-11T09:25:32.757Z,128.00
2019-05-11T09:26:32.741Z,128.00
2019-05-11T09:27:32.733Z,128.00
2019-05-11T09:28:32.720Z,128.00
2019-05-11T09:29:32.707Z,124.00
2019-05-11T09:30:32.704Z,120.00
2019-05-11T09:31:32.686Z,120.00
2019-05-11T09:32:32.683Z,116.00
2019-05-11T09:33:32.666Z,116.00
2019-05-11T09:34:32.652Z,116.00
2019-05-11T09:35:45.719Z,112.00
2019-05-11T09:36:33.666Z,112.00
2019-05-11T09:37:32.619Z,112.00
2019-05-11T09:38:32.622Z,112.00
2019-05-11T09:39:32.597Z,116.00
2019-05-11T09:40:32.584Z,116.00
2019-05-11T09:41:32.577Z,120.00
2019-05-11T09:42:32.594Z,120.00
2019-05-11T09:43:32.552Z,120.00
2019-05-11T09:44:32.540Z,124.00
2019-05-11T09:45:44.812Z,128.00
2019-05-11T09:46:33.518Z,128.00
2019-05-11T09:47:32.509Z,136.00
2019-05-11T09:48:32.527Z,140.00
2019-05-11T09:49:44.051Z,136.00
2019-05-11T09:50:33.471Z,140.00
2019-05-11T09:51:32.461Z,140.00
2019-05-11T09:52:32.845Z,140.00
2019-05-11T09:53:32.438Z,136.00
2019-05-11T09:54:32.440Z,136.00
2019-05-11T09:55:32.414Z,132.00
2019-05-11T09:56:32.403Z,128.00
2019-05-11T09:57:32.392Z,132.00
2019-05-11T09:58:32.383Z,132.00
2019-05-11T09:59:32.373Z,128.00
2019-05-11T10:00:32.368Z,132.00
2019-05-11T10:01:32.347Z,128.00
2019-05-11T10:02:32.338Z,124.00
2019-05-11T10:03:32.325Z,124.00
2019-05-11T10:04:32.315Z,120.00
2019-05-11T10:05:32.307Z,120.00
2019-05-11T10:06:32.315Z,120.00
2019-05-11T10:07:32.654Z,116.00
2019-05-11T10:08:32.269Z,116.00
2019-05-11T10:09:32.259Z,116.00
2019-05-11T10:10:32.245Z,112.00
2019-05-11T10:11:32.235Z,112.00
2019-05-11T10:12:32.244Z,112.00
2019-05-11T10:13:32.212Z,112.00
2019-05-11T10:14:32.209Z,108.00
2019-05-11T10:15:32.191Z,112.00
2019-05-11T10:16:32.178Z,112.00
2019-05-11T10:17:32.169Z,112.00
2019-05-11T10:18:32.168Z,112.00
2019-05-11T10:19:32.151Z,120.00
2019-05-11T10:20:32.136Z,116.00
2019-05-11T10:21:32.123Z,116.00
2019-05-11T10:22:32.114Z,116.00
2019-05-11T10:23:32.099Z,116.00
2019-05-11T10:24:32.119Z,116.00
2019-05-11T10:25:32.081Z,116.00
2019-05-11T10:26:32.066Z,116.00
2019-05-11T10:27:32.055Z,116.00
2019-05-11T10:28:32.043Z,112.00
2019-05-11T10:29:34.026Z,128.00
2019-05-11T10:30:32.030Z,132.00
2019-05-11T10:31:32.010Z,132.00
2019-05-11T10:32:31.997Z,136.00
2019-05-11T10:33:31.991Z,132.00
2019-05-11T10:34:31.978Z,132.00
2019-05-11T10:35:31.967Z,128.00
2019-05-11T10:36:31.968Z,128.00
2019-05-11T10:37:31.942Z,124.00
2019-05-11T10:38:31.933Z,124.00
2019-05-11T10:39:31.918Z,120.00
2019-05-11T10:40:31.908Z,124.00
2019-05-11T10:41:31.897Z,124.00
2019-05-11T10:42:31.893Z,128.00
2019-05-11T10:43:31.878Z,128.00
2019-05-11T10:44:31.863Z,132.00
2019-05-11T10:45:31.851Z,132.00
2019-05-11T10:46:31.840Z,132.00
2019-05-11T10:47:31.829Z,128.00
2019-05-11T10:48:31.846Z,136.00
2019-05-11T10:49:31.808Z,132.00
2019-05-11T10:50:31.797Z,132.00
2019-05-11T10:51:31.784Z,136.00
2019-05-11T10:52:31.773Z,128.00
2019-05-11T10:53:31.761Z,120.00
2019-05-11T10:54:31.756Z,132.00
2019-05-11T10:55:31.738Z,136.00
2019-05-11T10:56:31.727Z,136.00
2019-05-11T10:57:31.718Z,140.00
2019-05-11T10:58:31.705Z,124.00
2019-05-11T10:59:31.722Z,124.00
2019-05-11T11:00:31.717Z,128.00
2019-05-11T11:01:31.673Z,124.00
2019-05-11T11:02:31.661Z,132.00
2019-05-11T11:03:31.649Z,132.00
2019-05-11T11:04:31.637Z,132.00
2019-05-11T11:05:31.633Z,132.00
2019-05-11T11:06:31.624Z,136.00
2019-05-11T11:07:31.604Z,132.00
2019-05-11T11:08:31.595Z,136.00
2019-05-11T11:09:31.581Z,132.00
2019-05-11T11:10:31.570Z,128.00
2019-05-11T11:11:31.559Z,120.00
2019-05-11T11:12:31.555Z,124.00
2019-05-11T11:13:31.536Z,120.00
2019-05-11T11:14:31.525Z,116.00
2019-05-11T11:15:31.513Z,120.00
2019-05-11T11:16:38.802Z,116.00
2019-05-11T11:17:32.497Z,116.00
2019-05-11T11:18:31.485Z,116.00
2019-05-11T11:19:31.470Z,112.00
2019-05-11T11:20:31.458Z,112.00
2019-05-11T11:21:31.446Z,112.00
2019-05-11T11:22:39.367Z,96.00
2019-05-11T11:23:32.455Z,96.00
2019-05-11T11:24:31.411Z,92.00
2019-05-11T11:25:31.402Z,92.00
2019-05-11T11:26:31.391Z,88.00
2019-05-11T11:27:31.379Z,92.00
2019-05-11T11:28:31.367Z,88.00
2019-05-11T11:29:31.363Z,88.00
2019-05-11T11:30:31.378Z,88.00
2019-05-11T11:31:31.334Z,84.00
2019-05-11T11:32:31.323Z,80.00
2019-05-11T11:33:31.316Z,80.00
2019-05-11T11:34:31.482Z,80.00
2019-05-11T11:35:31.297Z,76.00
2019-05-11T11:36:31.277Z,76.00
2019-05-11T11:37:31.273Z,76.00
2019-05-11T11:38:31.253Z,72.00
2019-05-11T11:39:31.243Z,76.00
2019-05-11T11:40:31.231Z,76.00
2019-05-11T11:41:31.234Z,72.00
2019-05-11T11:42:31.210Z,72.00
2019-05-11T11:43:31.199Z,72.00
2019-05-11T11:44:31.191Z,72.00
2019-05-11T11:45:31.176Z,84.00
2019-05-11T11:46:31.165Z,88.00
2019-05-11T11:47:31.160Z,88.00
2019-05-11T11:48:31.145Z,88.00
2019-05-11T11:49:31.133Z,76.00
2019-05-11T11:50:31.118Z,88.00
2019-05-11T11:51:31.110Z,88.00
2019-05-11T11:52:31.097Z,88.00
2019-05-11T11:53:31.100Z,88.00
2019-05-11T11:54:31.074Z,84.00
2019-05-11T11:55:31.063Z,84.00
2019-05-11T11:56:31.055Z,88.00
2019-05-11T11:57:31.042Z,84.00
2019-05-11T11:58:31.059Z,84.00
2019-05-11T11:59:31.049Z,84.00
2019-05-11T12:00:31.007Z,84.00
2019-05-11T12:01:31.054Z,84.00
2019-05-11T12:02:30.984Z,84.00
2019-05-11T12:03:30.972Z,84.00
2019-05-11T12:04:30.962Z,88.00
2019-05-11T12:05:30.994Z,88.00
2019-05-11T12:06:30.943Z,88.00
2019-05-11T12:07:30.927Z,84.00
2019-05-11T12:08:30.923Z,84.00
2019-05-11T12:09:30.918Z,88.00
2019-05-11T12:10:30.894Z,88.00
2019-05-11T12:11:30.917Z,84.00
2019-05-11T12:12:30.872Z,88.00
2019-05-11T12:13:30.862Z,84.00
2019-05-11T12:14:30.849Z,84.00
2019-05-11T12:15:30.838Z,84.00
2019-05-11T12:16:30.826Z,84.00
2019-05-11T12:17:30.826Z,80.00
2019-05-11T12:18:30.804Z,84.00
2019-05-11T12:19:30.792Z,84.00
2019-05-11T12:20:30.780Z,84.00
2019-05-11T12:21:30.774Z,88.00
2019-05-11T12:22:30.758Z,84.00
2019-05-11T12:23:30.753Z,88.00
2019-05-11T12:24:30.739Z,88.00
2019-05-11T12:25:30.725Z,88.00
2019-05-11T12:26:30.713Z,92.00
2019-05-11T12:27:30.702Z,88.00
2019-05-11T12:28:30.693Z,88.00
2019-05-11T12:29:30.713Z,92.00
2019-05-11T12:30:30.668Z,92.00
2019-05-11T12:31:32.615Z,92.00
2019-05-11T12:32:30.645Z,92.00
2019-05-11T12:33:30.634Z,92.00
2019-05-11T12:34:30.623Z,88.00
2019-05-11T12:35:30.660Z,88.00
2019-05-11T12:36:30.600Z,88.00
2019-05-11T12:37:30.593Z,84.00
2019-05-11T12:38:30.584Z,84.00
2019-05-11T12:39:30.567Z,84.00
2019-05-11T12:40:30.556Z,84.00
2019-05-11T12:41:30.581Z,80.00
2019-05-11T12:42:30.534Z,84.00
2019-05-11T12:43:30.523Z,84.00
2019-05-11T12:44:30.513Z,84.00
2019-05-11T12:45:30.499Z,80.00
2019-05-11T12:46:30.489Z,80.00
2019-05-11T12:47:30.503Z,80.00
2019-05-11T12:48:30.465Z,80.00
2019-05-11T12:49:30.455Z,76.00
2019-05-11T12:50:30.442Z,76.00
2019-05-11T12:51:30.430Z,76.00
2019-05-11T12:52:30.421Z,76.00
2019-05-11T12:53:30.444Z,80.00
2019-05-11T12:54:30.408Z,76.00